This is the latest recevied weather packets stored in our database for station/object PU5FJO-13. If no packets are shown the sender has not sent any weather packets the latest 10 day(s).
| Time | Temp. | Humidity | Pressure | Rain* | Wind** | Luminosity | Snow |
|---|---|---|---|---|---|---|---|
| 1777626369 | 17.22° C | 81% | 1019.5 hPa | - | - | - | - |
| 1777625769 | 16.67° C | 82% | 1019.4 hPa | - | - | - | - |
| 1777625169 | 17.78° C | 78% | 1019.3 hPa | - | - | - | - |
| 1777624569 | 17.78° C | 77% | 1019.2 hPa | - | - | - | - |
| 1777623969 | 17.22° C | 79% | 1019.1 hPa | - | - | - | - |
| 1777623369 | 17.78° C | 78% | 1019 hPa | - | - | - | - |
| 1777622769 | 17.22° C | 80% | 1018.9 hPa | - | - | - | - |
| 1777622169 | 17.22° C | 80% | 1018.9 hPa | - | - | - | - |
| 1777621569 | 17.78° C | 76% | 1019.1 hPa | - | - | - | - |
| 1777620969 | 18.33° C | 77% | 1019.1 hPa | - | - | - | - |
| 1777620369 | 18.33° C | 78% | 1019.2 hPa | - | - | - | - |
| 1777619769 | 17.78° C | 80% | 1019.2 hPa | - | - | - | - |
| 1777619169 | 17.78° C | 81% | 1019.3 hPa | - | - | - | - |
| 1777618569 | 18.89° C | 75% | 1019 hPa | - | - | - | - |
| 1777617969 | 18.33° C | 77% | 1019.2 hPa | - | - | - | - |
| 1777617369 | 18.33° C | 77% | 1019.3 hPa | - | - | - | - |
| 1777616769 | 18.33° C | 76% | 1019.3 hPa | - | - | - | - |
| 1777616169 | 17.22° C | 80% | 1019.5 hPa | - | - | - | - |
| 1777615569 | 17.22° C | 81% | 1019.6 hPa | - | - | - | - |
| 1777614969 | 17.78° C | 81% | 1019.8 hPa | - | - | - | - |
| 1777614369 | 17.78° C | 80% | 1019.8 hPa | - | - | - | - |
| 1777613769 | 18.33° C | 79% | 1020 hPa | - | - | - | - |
| 1777613169 | 18.33° C | 79% | 1020.2 hPa | - | - | - | - |
| 1777612569 | 17.78° C | 82% | 1020.2 hPa | - | - | - | - |
| 1777611969 | 17.78° C | 80% | 1020.4 hPa | - | - | - | - |
* Rain since midnight (hover to see other rain measurements)
** Current wind speed in m/s (hover to see current wind gust speed)